Time;durP1;ratioP1;P1;durP2;ratioP2;P2;SDS_P1;SDS_P2;PMS_P1;PMS_P2;Temp;Humidity;BMP_temperature;BMP_pressure;BME280_temperature;BME280_humidity;BME280_pressure;Samples;Min_cycle;Max_cycle;Signal;HPM_P1;HPM_P2
2022/11/12 00:01:24;;;;;;;16.50;4.07;;;19.00;99.90;;;;;;4990633;28;20053;-78
2022/11/12 00:03:51;;;;;;;15.77;4.40;;;18.90;99.90;;;;;;4991033;28;20057;-78
2022/11/12 00:06:17;;;;;;;11.93;4.35;;;18.90;99.90;;;;;;4979186;28;20058;-78
2022/11/12 00:08:43;;;;;;;11.52;4.28;;;18.90;99.90;;;;;;4985691;28;20074;-79
2022/11/12 00:11:09;;;;;;;11.57;4.22;;;18.90;99.90;;;;;;4984336;28;20114;-78
2022/11/12 00:13:34;;;;;;;12.02;3.97;;;18.80;99.90;;;;;;4987353;28;20105;-78
2022/11/12 00:16:00;;;;;;;16.52;4.90;;;18.80;99.90;;;;;;4981828;28;20041;-77
2022/11/12 00:18:26;;;;;;;15.05;4.43;;;18.80;99.90;;;;;;4985693;28;20462;-74
2022/11/12 00:20:52;;;;;;;11.20;3.95;;;18.80;99.90;;;;;;4980592;28;20064;-74
2022/11/12 00:23:18;;;;;;;15.93;4.80;;;18.80;99.90;;;;;;4978016;28;20088;-74
2022/11/12 00:25:44;;;;;;;11.55;4.15;;;18.80;99.90;;;;;;4993188;28;20027;-74
2022/11/12 00:28:10;;;;;;;12.88;3.97;;;18.70;99.90;;;;;;4977010;28;20053;-74
2022/11/12 00:30:40;;;;;;;12.48;4.10;;;18.70;99.90;;;;;;4981999;28;20038;-74
2022/11/12 00:33:06;;;;;;;14.13;4.03;;;18.70;99.90;;;;;;4980013;28;20540;-79
2022/11/12 00:35:32;;;;;;;18.23;4.20;;;18.70;99.90;;;;;;4981246;28;20029;-78
2022/11/12 00:37:59;;;;;;;11.75;4.55;;;18.60;99.90;;;;;;4986291;28;20045;-78
2022/11/12 00:40:26;;;;;;;12.32;4.28;;;18.50;99.90;;;;;;4985203;28;20219;-78
2022/11/12 00:42:52;;;;;;;8.32;4.70;;;18.50;99.90;;;;;;4972647;28;20459;-78
2022/11/12 00:45:19;;;;;;;15.18;4.10;;;18.40;99.90;;;;;;4985150;28;20058;-77
2022/11/12 00:47:45;;;;;;;17.65;4.78;;;18.40;99.90;;;;;;4988181;28;20053;-79
2022/11/12 00:50:14;;;;;;;13.50;4.25;;;18.40;99.90;;;;;;4982356;28;20034;-78
2022/11/12 00:52:40;;;;;;;12.52;3.95;;;18.40;99.90;;;;;;4998513;28;20034;-79
2022/11/12 00:55:06;;;;;;;11.10;4.75;;;18.40;99.90;;;;;;4986843;28;20115;-78
2022/11/12 00:57:32;;;;;;;13.70;4.10;;;18.30;99.90;;;;;;4990282;28;20105;-77
2022/11/12 00:59:58;;;;;;;13.00;4.05;;;18.30;99.90;;;;;;5000172;28;24872;-78
2022/11/12 01:02:23;;;;;;;10.85;3.70;;;18.20;99.90;;;;;;4988081;28;20081;-77
2022/11/12 01:04:49;;;;;;;10.95;3.95;;;18.20;99.90;;;;;;4981400;28;20039;-78
2022/11/12 01:07:15;;;;;;;10.02;4.05;;;18.20;99.90;;;;;;4973556;28;20122;-77
2022/11/12 01:09:41;;;;;;;15.30;4.50;;;18.20;99.90;;;;;;5001447;28;20038;-77
2022/11/12 01:12:07;;;;;;;14.68;4.32;;;18.20;99.90;;;;;;4988041;28;20034;-78
2022/11/12 01:14:33;;;;;;;12.50;4.63;;;18.10;99.90;;;;;;4987434;28;20065;-74
2022/11/12 01:16:58;;;;;;;11.73;3.67;;;18.10;99.90;;;;;;4983931;28;20070;-75
2022/11/12 01:19:24;;;;;;;15.63;4.47;;;18.10;99.90;;;;;;4987838;28;20081;-74
2022/11/12 01:21:50;;;;;;;12.20;3.97;;;18.00;99.90;;;;;;4982572;28;20038;-74
2022/11/12 01:24:16;;;;;;;10.45;3.97;;;18.00;99.90;;;;;;4980553;28;20122;-74
2022/11/12 01:26:41;;;;;;;11.40;4.10;;;18.00;99.90;;;;;;4980175;28;20173;-74
2022/11/12 01:29:08;;;;;;;11.38;4.85;;;18.00;99.90;;;;;;4983879;28;20390;-74
2022/11/12 01:31:36;;;;;;;10.65;3.80;;;18.00;99.90;;;;;;4985486;28;20065;-75
2022/11/12 01:34:04;;;;;;;9.00;3.78;;;18.00;99.90;;;;;;4985391;28;20121;-74
2022/11/12 01:36:33;;;;;;;12.23;4.35;;;17.90;99.90;;;;;;4982248;28;20026;-73
2022/11/12 01:38:59;;;;;;;12.07;4.47;;;17.90;99.90;;;;;;4989572;28;20053;-74
2022/11/12 01:41:28;;;;;;;14.52;4.65;;;17.90;99.90;;;;;;4983492;28;20043;-74
2022/11/12 01:44:13;;;;;;;12.60;4.65;;;17.80;99.90;;;;;;4998275;28;20038;-75
2022/11/12 01:46:53;;;;;;;10.10;4.40;;;17.80;99.90;;;;;;4978085;28;20062;-75
2022/11/12 01:49:30;;;;;;;8.45;4.15;;;17.80;99.90;;;;;;4981276;28;20197;-73
2022/11/12 01:52:02;;;;;;;9.15;4.00;;;17.80;99.90;;;;;;4979186;28;20062;-74
2022/11/12 01:54:28;;;;;;;14.77;4.95;;;17.80;99.90;;;;;;4978454;28;20157;-74
2022/11/12 01:56:55;;;;;;;12.40;4.05;;;17.70;99.90;;;;;;4984154;28;20129;-75
2022/11/12 01:59:36;;;;;;;11.80;4.22;;;17.70;99.90;;;;;;4979621;28;20118;-74
2022/11/12 02:02:04;;;;;;;10.75;4.20;;;17.60;99.90;;;;;;4983264;28;20038;-73
2022/11/12 02:04:32;;;;;;;12.05;4.30;;;17.70;99.90;;;;;;4979768;28;20054;-75
2022/11/12 02:06:59;;;;;;;13.40;4.50;;;17.70;99.90;;;;;;4982035;28;20485;-74
2022/11/12 02:09:29;;;;;;;10.25;3.65;;;17.70;99.90;;;;;;4980390;28;20063;-74
2022/11/12 02:11:55;;;;;;;12.13;3.80;;;17.60;99.90;;;;;;4983091;28;20038;-77
2022/11/12 02:14:21;;;;;;;11.40;4.72;;;17.60;99.90;;;;;;4982473;28;20450;-78
2022/11/12 02:16:48;;;;;;;12.27;4.45;;;17.60;99.90;;;;;;4983119;28;20066;-78
2022/11/12 02:19:15;;;;;;;10.60;3.92;;;17.60;99.90;;;;;;4986991;28;20042;-78
2022/11/12 02:21:42;;;;;;;10.48;3.67;;;17.50;99.90;;;;;;4982878;28;20109;-77
2022/11/12 02:24:14;;;;;;;11.18;4.07;;;17.60;99.90;;;;;;4984123;28;20060;-77
2022/11/12 02:26:44;;;;;;;8.55;3.53;;;17.60;99.90;;;;;;5003322;28;20489;-77
2022/11/12 02:29:10;;;;;;;10.48;4.32;;;17.60;99.90;;;;;;4982725;28;20533;-78
2022/11/12 02:31:36;;;;;;;14.35;4.65;;;17.60;99.90;;;;;;4981554;28;20371;-78
2022/11/12 02:34:02;;;;;;;11.43;3.70;;;17.50;99.90;;;;;;4984636;28;20054;-77
2022/11/12 02:36:29;;;;;;;9.07;3.83;;;17.50;99.90;;;;;;4979021;28;20914;-77
2022/11/12 02:38:54;;;;;;;8.82;3.90;;;17.50;99.90;;;;;;4996453;28;20080;-77
2022/11/12 02:41:21;;;;;;;11.13;4.32;;;17.50;99.90;;;;;;4981784;28;20054;-77
2022/11/12 02:43:47;;;;;;;9.80;4.30;;;17.50;99.90;;;;;;4985540;28;20035;-76
2022/11/12 02:46:13;;;;;;;11.15;4.05;;;17.60;99.90;;;;;;4974338;28;20035;-77
2022/11/12 02:48:39;;;;;;;9.25;3.55;;;17.50;99.90;;;;;;4995919;28;20131;-76
2022/11/12 02:51:06;;;;;;;11.73;4.05;;;17.50;99.90;;;;;;4985460;28;20877;-77
2022/11/12 02:53:32;;;;;;;8.50;3.33;;;17.50;99.90;;;;;;4986918;28;20031;-74
2022/11/12 02:56:00;;;;;;;8.70;4.07;;;17.50;99.90;;;;;;4968939;28;20034;-74
2022/11/12 02:58:26;;;;;;;10.77;4.28;;;17.50;99.90;;;;;;4962040;28;20035;-74
2022/11/12 03:01:01;;;;;;;10.70;3.85;;;17.40;99.90;;;;;;4970588;28;20082;-74
2022/11/12 03:03:27;;;;;;;14.20;4.70;;;17.40;99.90;;;;;;4982039;28;20026;-73
2022/11/12 03:05:58;;;;;;;10.60;3.78;;;17.40;99.90;;;;;;4986173;28;20142;-77
2022/11/12 03:08:25;;;;;;;8.48;3.78;;;17.40;99.90;;;;;;4990062;28;20031;-78
2022/11/12 03:10:56;;;;;;;10.40;4.25;;;17.40;99.90;;;;;;4982251;28;20504;-77
2022/11/12 03:13:22;;;;;;;11.02;4.20;;;17.40;99.90;;;;;;4999112;28;20034;-77
2022/11/12 03:15:48;;;;;;;9.13;3.78;;;17.40;99.90;;;;;;4982529;28;20084;-77
2022/11/12 03:18:14;;;;;;;11.52;3.80;;;17.40;99.90;;;;;;4986335;28;20034;-77
2022/11/12 03:20:40;;;;;;;9.15;3.85;;;17.40;99.90;;;;;;4980451;28;20051;-77
2022/11/12 03:23:10;;;;;;;11.32;3.78;;;17.40;99.90;;;;;;4985858;28;20046;-78
2022/11/12 03:25:39;;;;;;;13.55;4.47;;;17.40;99.90;;;;;;4987771;28;20394;-77
2022/11/12 03:28:10;;;;;;;13.38;4.43;;;17.40;99.90;;;;;;4984427;28;20045;-79
2022/11/12 03:30:38;;;;;;;9.32;3.90;;;17.40;99.90;;;;;;4985983;28;20046;-77
2022/11/12 03:33:06;;;;;;;9.88;3.80;;;17.40;99.90;;;;;;4986171;28;20046;-77
2022/11/12 03:35:32;;;;;;;9.77;3.95;;;17.50;99.90;;;;;;4972921;28;20375;-78
2022/11/12 03:37:58;;;;;;;11.70;4.07;;;17.50;99.90;;;;;;4982696;28;20053;-78
2022/11/12 03:40:27;;;;;;;11.80;3.53;;;17.60;99.90;;;;;;4982920;28;20137;-78
2022/11/12 03:42:53;;;;;;;10.63;3.35;;;17.70;99.90;;;;;;4986010;28;20497;-78
2022/11/12 03:45:21;;;;;;;10.40;3.95;;;17.70;99.90;;;;;;4989453;28;20042;-78
2022/11/12 03:47:49;;;;;;;8.82;3.35;;;17.70;99.90;;;;;;4974121;28;20045;-78
2022/11/12 03:50:16;;;;;;;11.60;3.63;;;17.70;99.90;;;;;;4984138;28;20689;-76
2022/11/12 03:52:47;;;;;;;8.27;3.75;;;17.70;99.90;;;;;;4968109;28;20037;-78
2022/11/12 03:55:16;;;;;;;12.93;3.53;;;17.70;99.90;;;;;;4982784;28;20783;-78
2022/11/12 03:57:43;;;;;;;11.27;3.58;;;17.70;99.90;;;;;;4983840;28;20038;-77
2022/11/12 04:00:12;;;;;;;10.55;3.65;;;17.60;99.90;;;;;;4982699;28;20074;-77
2022/11/12 04:02:38;;;;;;;14.70;3.80;;;17.50;99.90;;;;;;4985936;28;20560;-78
2022/11/12 04:08:36;;;;;;;7.88;3.28;;;17.40;99.90;;;;;;4980658;28;20118;-78
2022/11/12 04:11:14;;;;;;;10.57;4.00;;;17.40;99.90;;;;;;4982728;28;20129;-78
2022/11/12 04:13:42;;;;;;;10.75;4.10;;;17.30;99.90;;;;;;4984306;28;20102;-78
2022/11/12 04:22:08;;;;;;;8.68;4.38;;;17.30;99.90;;;;;;4985833;28;20041;-78
2022/11/12 04:27:27;;;;;;;13.65;3.50;;;17.30;99.90;;;;;;4983044;28;20173;-78
2022/11/12 04:32:49;;;;;;;13.55;4.05;;;17.40;99.90;;;;;;4978675;28;20225;-78
2022/11/12 04:35:15;;;;;;;5.90;3.10;;;17.40;99.90;;;;;;4991346;28;20045;-78
2022/11/12 04:37:44;;;;;;;10.55;3.55;;;17.50;99.90;;;;;;4988620;28;20035;-74
2022/11/12 04:45:50;;;;;;;8.70;3.75;;;17.50;99.90;;;;;;4980307;28;20045;-74
2022/11/12 04:48:17;;;;;;;8.48;3.20;;;17.40;99.90;;;;;;4975706;28;20046;-74
2022/11/12 04:50:46;;;;;;;6.68;3.40;;;17.40;99.90;;;;;;4966345;28;20045;-74
2022/11/12 04:53:14;;;;;;;10.30;3.72;;;17.40;99.90;;;;;;4975739;28;20038;-74
2022/11/12 04:55:41;;;;;;;8.80;3.85;;;17.40;99.90;;;;;;4979252;28;20121;-73
2022/11/12 04:58:07;;;;;;;11.68;3.65;;;17.40;99.90;;;;;;4991654;28;20049;-73
2022/11/12 05:00:33;;;;;;;8.75;3.70;;;17.40;99.90;;;;;;4982005;28;20039;-74
2022/11/12 05:03:00;;;;;;;11.60;3.80;;;17.50;99.90;;;;;;4977471;28;20042;-74
2022/11/12 05:05:26;;;;;;;11.93;3.85;;;17.50;99.90;;;;;;4976775;28;20061;-74
2022/11/12 05:07:52;;;;;;;10.75;4.07;;;17.50;99.90;;;;;;4979319;28;20678;-73
2022/11/12 05:10:17;;;;;;;10.18;3.85;;;17.50;99.90;;;;;;4978366;28;20081;-74
2022/11/12 05:12:43;;;;;;;11.50;3.95;;;17.40;99.90;;;;;;4994073;28;20062;-73
2022/11/12 05:15:13;;;;;;;11.60;3.67;;;17.40;99.90;;;;;;4979877;28;20051;-74
2022/11/12 05:17:42;;;;;;;6.82;3.25;;;17.30;99.90;;;;;;4991366;28;20113;-73
2022/11/12 05:20:12;;;;;;;9.68;3.60;;;17.30;99.90;;;;;;4975859;28;20046;-73
2022/11/12 05:22:39;;;;;;;10.23;3.30;;;17.30;99.90;;;;;;4983931;28;20046;-73
2022/11/12 05:25:05;;;;;;;11.65;4.00;;;17.30;99.90;;;;;;4980024;28;20038;-74
2022/11/12 05:27:31;;;;;;;;;;;17.30;99.90;;;;;;4983566;28;20054;-74
2022/11/12 05:29:57;;;;;;;9.95;3.45;;;17.30;99.90;;;;;;4996180;28;19960;-73
2022/11/12 05:32:25;;;;;;;7.55;3.67;;;17.30;99.90;;;;;;4981841;28;20038;-74
2022/11/12 05:34:55;;;;;;;10.50;3.47;;;17.30;99.90;;;;;;4980775;28;20033;-74
2022/11/12 05:37:21;;;;;;;12.25;4.65;;;17.30;99.90;;;;;;4975801;28;20370;-74
2022/11/12 05:39:47;;;;;;;8.05;3.33;;;17.30;99.90;;;;;;4977835;28;20137;-74
2022/11/12 05:42:13;;;;;;;11.52;3.40;;;17.40;99.90;;;;;;4985354;28;20034;-74
2022/11/12 05:44:38;;;;;;;8.35;3.40;;;17.30;99.90;;;;;;4982786;28;20038;-73
2022/11/12 05:47:05;;;;;;;9.73;3.88;;;17.40;99.90;;;;;;4983392;28;20046;-74
2022/11/12 05:49:31;;;;;;;;;;;17.40;99.90;;;;;;4985086;28;20430;-73
2022/11/12 05:51:57;;;;;;;9.80;3.83;;;17.50;99.90;;;;;;4986057;28;19960;-75
2022/11/12 05:54:23;;;;;;;9.38;3.40;;;17.50;99.90;;;;;;4984595;28;20050;-74
2022/11/12 05:56:52;;;;;;;9.60;3.40;;;17.50;99.90;;;;;;4977987;28;20047;-74
2022/11/12 05:59:17;;;;;;;12.23;3.45;;;17.50;99.90;;;;;;4980698;28;20034;-74
2022/11/12 06:01:43;;;;;;;9.73;3.80;;;17.50;99.90;;;;;;4984879;28;20057;-73
2022/11/12 06:04:13;;;;;;;8.25;3.67;;;17.50;99.90;;;;;;4987749;28;20034;-73
2022/11/12 06:06:40;;;;;;;11.02;4.05;;;17.40;99.90;;;;;;4998838;28;20483;-74
2022/11/12 06:09:06;;;;;;;;;;;17.50;99.90;;;;;;4982841;28;20156;-72
2022/11/12 06:11:32;;;;;;;9.45;3.40;;;17.50;99.90;;;;;;4986550;28;19921;-73
2022/11/12 06:13:58;;;;;;;10.65;3.63;;;17.50;99.90;;;;;;4965386;28;20047;-73
2022/11/12 06:16:24;;;;;;;11.32;3.90;;;17.50;99.90;;;;;;4980306;28;20046;-74
2022/11/12 06:18:50;;;;;;;9.13;3.85;;;17.50;99.90;;;;;;4982382;28;20397;-74
2022/11/12 06:21:20;;;;;;;8.88;3.45;;;17.50;99.90;;;;;;4984943;28;20406;-73
2022/11/12 06:23:47;;;;;;;7.90;3.33;;;17.50;99.90;;;;;;4980537;28;20050;-74
2022/11/12 06:26:13;;;;;;;7.95;3.22;;;17.50;99.90;;;;;;4987679;28;20031;-75
2022/11/12 06:28:39;;;;;;;8.77;3.42;;;17.50;99.90;;;;;;4986589;28;20049;-74
2022/11/12 06:31:05;;;;;;;9.70;3.55;;;17.50;99.90;;;;;;4980194;28;20039;-73
2022/11/12 06:33:31;;;;;;;9.93;4.03;;;17.60;99.90;;;;;;4982479;28;20045;-74
2022/11/12 06:36:02;;;;;;;9.30;3.58;;;17.60;99.90;;;;;;4980097;28;20563;-74
2022/11/12 06:38:33;;;;;;;11.27;4.00;;;17.60;99.90;;;;;;4980992;28;20374;-75
2022/11/12 06:40:59;;;;;;;11.35;4.22;;;17.60;99.90;;;;;;4984787;28;20446;-74
2022/11/12 06:43:29;;;;;;;11.07;3.25;;;17.50;99.90;;;;;;4981006;28;20042;-74
2022/11/12 06:46:01;;;;;;;9.35;3.63;;;17.50;99.90;;;;;;4985939;28;20034;-75
2022/11/12 06:48:28;;;;;;;8.30;3.55;;;17.60;99.90;;;;;;4976001;28;20098;-74
2022/11/12 06:50:55;;;;;;;8.60;3.13;;;17.60;99.90;;;;;;4975352;28;20042;-75
2022/11/12 06:53:21;;;;;;;;;;;17.60;99.90;;;;;;4980904;28;20027;-74
2022/11/12 06:55:46;;;;;;;11.25;3.35;;;17.60;99.90;;;;;;4981836;28;19918;-74
2022/11/12 06:58:12;;;;;;;8.20;3.45;;;17.60;99.90;;;;;;4973323;28;20517;-74
2022/11/12 07:00:38;;;;;;;9.52;4.22;;;17.60;99.90;;;;;;4996407;28;20054;-75
2022/11/12 07:03:08;;;;;;;9.50;3.80;;;17.70;99.90;;;;;;4984452;28;20039;-74
2022/11/12 07:05:37;;;;;;;8.35;3.15;;;17.60;99.90;;;;;;4984823;28;20600;-74
2022/11/12 07:08:04;;;;;;;12.18;3.67;;;17.60;99.90;;;;;;4981618;28;20038;-75
2022/11/12 07:10:31;;;;;;;8.95;3.92;;;17.60;99.90;;;;;;4970590;28;20039;-73
2022/11/12 07:12:57;;;;;;;10.23;4.20;;;17.70;99.90;;;;;;4984239;28;20038;-74
2022/11/12 07:15:23;;;;;;;;;;;17.70;99.90;;;;;;4980514;28;20047;-74
2022/11/12 07:17:49;;;;;;;9.15;4.05;;;17.70;99.90;;;;;;4980562;28;19910;-75
2022/11/12 07:20:15;;;;;;;8.80;3.65;;;17.80;99.90;;;;;;4983412;28;20038;-74
2022/11/12 07:22:41;;;;;;;14.60;5.05;;;17.80;99.90;;;;;;4980498;28;21333;-74
2022/11/12 07:25:07;;;;;;;9.18;3.40;;;17.90;99.90;;;;;;4983365;28;20053;-75
2022/11/12 07:27:33;;;;;;;10.77;3.90;;;17.90;99.90;;;;;;4982312;28;20046;-74
2022/11/12 07:29:58;;;;;;;9.88;3.55;;;17.90;99.90;;;;;;4985764;28;20061;-74
2022/11/12 07:32:24;;;;;;;11.93;3.63;;;17.90;99.90;;;;;;4980007;28;20058;-75
2022/11/12 07:34:50;;;;;;;10.80;4.18;;;17.90;99.90;;;;;;4979052;28;20036;-75
2022/11/12 07:37:16;;;;;;;8.70;3.72;;;17.90;99.90;;;;;;4978945;28;20022;-74
2022/11/12 07:39:42;;;;;;;7.32;3.28;;;17.90;99.90;;;;;;4983092;28;20061;-75
2022/11/12 07:42:07;;;;;;;8.20;3.45;;;17.90;99.90;;;;;;4982839;28;20049;-75
2022/11/12 07:44:33;;;;;;;9.18;3.35;;;18.00;99.90;;;;;;4984319;28;20049;-74
2022/11/12 07:46:59;;;;;;;9.88;3.70;;;18.00;99.90;;;;;;4981486;28;20069;-74
2022/11/12 07:49:25;;;;;;;9.82;3.50;;;18.00;99.90;;;;;;4978224;28;20042;-75
2022/11/12 07:51:50;;;;;;;13.55;3.75;;;18.10;99.90;;;;;;4979168;28;20041;-75
2022/11/12 07:54:16;;;;;;;9.40;3.53;;;18.20;99.90;;;;;;4982306;28;20037;-75
2022/11/12 07:56:42;;;;;;;9.30;3.30;;;18.30;99.90;;;;;;4979793;28;20073;-75
2022/11/12 07:59:08;;;;;;;7.93;3.20;;;18.40;99.90;;;;;;4979281;28;20044;-75
2022/11/12 08:01:36;;;;;;;9.18;3.38;;;18.50;99.90;;;;;;4995045;28;20041;-75
2022/11/12 08:04:05;;;;;;;8.98;3.50;;;18.70;99.90;;;;;;4971285;28;20033;-75
2022/11/12 08:06:31;;;;;;;8.52;3.50;;;18.90;99.90;;;;;;4991951;28;20409;-75
2022/11/12 08:08:58;;;;;;;;;;;19.10;99.90;;;;;;4980757;28;20058;-75
2022/11/12 08:11:24;;;;;;;8.32;3.08;;;19.50;99.90;;;;;;4980877;28;19920;-74
2022/11/12 08:13:50;;;;;;;7.63;2.90;;;19.40;99.90;;;;;;4981587;28;20042;-75
2022/11/12 08:16:17;;;;;;;7.30;3.38;;;19.40;99.90;;;;;;4986751;28;20042;-80
2022/11/12 08:18:43;;;;;;;9.18;3.13;;;19.40;99.90;;;;;;4987815;28;20066;-78
2022/11/12 08:21:12;;;;;;;6.50;3.10;;;19.50;99.90;;;;;;4990744;28;20035;-79
2022/11/12 08:23:38;;;;;;;6.70;2.72;;;19.70;99.90;;;;;;4991940;28;20038;-78
2022/11/12 08:26:06;;;;;;;6.93;3.05;;;19.70;99.90;;;;;;4987480;28;20026;-79
2022/11/12 08:28:34;;;;;;;8.50;3.00;;;20.20;99.90;;;;;;4989419;28;20030;-80
2022/11/12 08:31:07;;;;;;;7.65;3.17;;;21.60;99.90;;;;;;4992230;28;20034;-78
2022/11/12 08:33:34;;;;;;;8.27;3.08;;;23.10;99.90;;;;;;4985449;28;20043;-78
2022/11/12 08:36:04;;;;;;;;;;;23.90;99.90;;;;;;4995741;28;20035;-78
2022/11/12 08:38:30;;;;;;;7.93;2.83;;;24.30;99.90;;;;;;4994095;28;19918;-79
2022/11/12 08:41:05;;;;;;;7.45;3.58;;;23.90;99.90;;;;;;4987676;28;20042;-78
2022/11/12 08:43:31;;;;;;;6.47;2.83;;;22.90;99.90;;;;;;4969835;28;20038;-79
2022/11/12 08:45:59;;;;;;;9.48;2.78;;;22.30;99.90;;;;;;4991842;28;20045;-78
2022/11/12 08:48:27;;;;;;;9.15;3.10;;;21.90;99.90;;;;;;4986033;28;20054;-78
2022/11/12 08:50:53;;;;;;;7.13;2.70;;;21.70;99.90;;;;;;4997175;28;20092;-78
2022/11/12 08:53:21;;;;;;;8.65;2.97;;;21.40;99.90;;;;;;4994205;28;20976;-80
2022/11/12 08:55:47;;;;;;;7.63;2.70;;;21.50;99.90;;;;;;4991808;28;20049;-79
2022/11/12 08:58:12;;;;;;;9.75;3.55;;;21.50;99.90;;;;;;4994809;28;20038;-79
2022/11/12 09:00:41;;;;;;;9.77;2.95;;;21.60;99.90;;;;;;4982686;28;20066;-79
2022/11/12 09:03:15;;;;;;;10.40;3.83;;;21.40;99.90;;;;;;4986195;28;20038;-78
2022/11/12 09:05:41;;;;;;;8.73;3.58;;;21.10;99.90;;;;;;4991434;28;20509;-79
2022/11/12 09:08:09;;;;;;;8.55;2.90;;;21.00;99.90;;;;;;4992484;28;20061;-78
2022/11/12 09:10:36;;;;;;;13.15;3.72;;;21.00;99.90;;;;;;4991710;28;20030;-79
2022/11/12 09:13:03;;;;;;;14.10;3.45;;;21.20;99.90;;;;;;4993349;28;20034;-79
2022/11/12 09:15:29;;;;;;;11.30;4.07;;;21.20;99.90;;;;;;4992284;28;20047;-79
2022/11/12 09:18:01;;;;;;;10.85;4.03;;;21.20;99.90;;;;;;4993437;28;20043;-79
2022/11/12 09:20:28;;;;;;;11.82;4.28;;;21.50;99.90;;;;;;4990503;28;20101;-79
2022/11/12 09:23:02;;;;;;;9.50;3.75;;;21.70;99.90;;;;;;4993825;28;20084;-79
2022/11/12 09:25:28;;;;;;;9.07;3.83;;;21.70;99.90;;;;;;4991462;28;20089;-78
2022/11/12 09:27:54;;;;;;;8.77;3.72;;;21.60;99.90;;;;;;4997386;28;20181;-79
2022/11/12 09:30:20;;;;;;;9.65;4.18;;;21.60;99.90;;;;;;4983428;28;20439;-79
2022/11/12 09:32:46;;;;;;;;;;;22.50;99.90;;;;;;4995591;28;20043;-79
2022/11/12 09:35:12;;;;;;;10.95;3.75;;;23.00;99.90;;;;;;4996784;28;19925;-79
2022/11/12 09:37:38;;;;;;;10.55;3.83;;;22.90;99.90;;;;;;5008092;28;20098;-78
2022/11/12 09:40:15;;;;;;;9.93;4.63;;;22.80;99.90;;;;;;4992896;28;20046;-79
2022/11/12 09:42:45;;;;;;;11.18;3.75;;;23.10;99.90;;;;;;4997589;28;20041;-78
2022/11/12 09:45:34;;;;;;;12.63;4.43;;;23.10;99.90;;;;;;4980484;28;20062;-78
2022/11/12 09:48:05;;;;;;;11.40;3.28;;;23.00;99.90;;;;;;4971030;28;20128;-79
2022/11/12 09:50:46;;;;;;;8.45;3.10;;;22.80;99.90;;;;;;4990891;28;20034;-78
2022/11/12 09:53:20;;;;;;;9.07;3.22;;;22.40;99.90;;;;;;5003792;28;20034;-79
2022/11/12 09:55:49;;;;;;;10.48;3.95;;;22.20;99.90;;;;;;4994880;28;20034;-78
2022/11/12 09:58:18;;;;;;;9.45;3.33;;;22.20;99.90;;;;;;4990221;28;20057;-80
2022/11/12 10:01:16;;;;;;;11.48;4.38;;;22.20;99.90;;;;;;4999309;28;20414;-79
2022/11/12 10:04:27;;;;;;;8.77;3.85;;;22.20;99.90;;;;;;4984501;28;20041;-78
2022/11/12 10:07:32;;;;;;;10.63;3.60;;;22.30;99.90;;;;;;4994192;28;20074;-78
2022/11/12 10:10:14;;;;;;;9.82;3.70;;;22.60;99.90;;;;;;4992705;28;20149;-79
2022/11/12 10:12:47;;;;;;;9.38;3.63;;;23.00;99.90;;;;;;4983817;28;20046;-76
2022/11/12 10:18:49;;;;;;;9.05;3.40;;;24.50;99.90;;;;;;4979854;28;20045;-75
2022/11/12 10:21:29;;;;;;;9.25;3.42;;;24.70;99.90;;;;;;4978683;28;20547;-75
2022/11/12 10:23:57;;;;;;;7.90;2.90;;;25.10;99.90;;;;;;4984804;28;20031;-74
2022/11/12 10:26:25;;;;;;;9.25;4.07;;;25.20;99.90;;;;;;4984675;28;20439;-76
2022/11/12 10:29:01;;;;;;;9.35;3.85;;;25.20;99.90;;;;;;4989411;28;20401;-75
2022/11/12 10:31:27;;;;;;;7.88;3.28;;;25.30;99.90;;;;;;4994192;28;20035;-75
2022/11/12 10:34:23;;;;;;;7.88;3.50;;;25.60;99.90;;;;;;4980540;28;20049;-75
2022/11/12 10:37:01;;;;;;;8.65;2.45;;;24.90;99.90;;;;;;4983285;28;20039;-75
2022/11/12 10:39:32;;;;;;;11.82;3.53;;;24.80;99.90;;;;;;4983613;28;20064;-75
2022/11/12 10:42:08;;;;;;;8.60;2.83;;;25.10;99.90;;;;;;4982994;28;20097;-74
2022/11/12 10:44:33;;;;;;;8.25;3.17;;;25.30;99.90;;;;;;4982007;28;20045;-76
2022/11/12 10:47:17;;;;;;;9.10;3.00;;;25.50;99.90;;;;;;4982512;28;20031;-75
2022/11/12 10:49:43;;;;;;;10.85;3.45;;;25.70;99.90;;;;;;4980728;28;20623;-74
2022/11/12 10:52:23;;;;;;;8.98;2.55;;;25.60;99.90;;;;;;4997033;28;20506;-75
2022/11/12 10:55:18;;;;;;;6.05;2.30;;;25.80;99.90;;;;;;4980806;28;20103;-75
2022/11/12 10:57:44;;;;;;;8.20;3.35;;;26.00;99.90;;;;;;4980741;28;20034;-75
2022/11/12 11:00:13;;;;;;;7.80;3.17;;;26.20;99.90;;;;;;4969063;28;20042;-75
2022/11/12 11:02:51;;;;;;;11.50;2.78;;;26.80;99.90;;;;;;4997249;28;20050;-76
2022/11/12 11:05:52;;;;;;;6.63;3.58;;;27.00;99.90;;;;;;4980318;28;20058;-75
2022/11/12 11:08:40;;;;;;;8.85;3.22;;;27.10;99.90;;;;;;4983398;28;20092;-75
2022/11/12 11:11:26;;;;;;;14.27;3.88;;;27.40;99.90;;;;;;4983553;28;20042;-75
2022/11/12 11:14:28;;;;;;;9.82;3.55;;;27.50;99.90;;;;;;4984061;28;20449;-76
2022/11/12 11:16:57;;;;;;;7.93;3.42;;;27.50;99.90;;;;;;4981607;28;20130;-76
2022/11/12 11:19:35;;;;;;;7.40;3.38;;;27.80;99.90;;;;;;4981886;28;20042;-76
2022/11/12 11:22:18;;;;;;;8.10;3.03;;;28.10;99.90;;;;;;4985762;28;20133;-75
2022/11/12 11:24:54;;;;;;;9.90;3.55;;;28.40;99.90;;;;;;4999247;28;20125;-80
2022/11/12 11:27:44;;;;;;;9.20;3.42;;;28.10;99.90;;;;;;4987314;28;20110;-79
2022/11/12 11:30:11;;;;;;;;;;;28.60;99.90;;;;;;5003844;28;20062;-79
2022/11/12 11:33:24;;;;;;;8.35;3.40;;;28.30;99.90;;;;;;4986518;28;19956;-78
2022/11/12 11:36:25;;;;;;;7.47;3.60;;;28.70;99.90;;;;;;4965984;28;20057;-79
2022/11/12 11:39:02;;;;;;;9.57;3.60;;;29.10;99.90;;;;;;4989581;28;20138;-79
2022/11/12 11:41:37;;;;;;;8.90;4.07;;;28.60;99.90;;;;;;4989050;28;20490;-78
2022/11/12 11:44:28;;;;;;;7.20;3.45;;;28.30;99.90;;;;;;4981242;28;20055;-78
2022/11/12 11:47:13;;;;;;;7.80;3.60;;;28.70;99.90;;;;;;4987833;28;20034;-78
2022/11/12 11:49:46;;;;;;;9.90;3.97;;;28.80;99.90;;;;;;4977435;28;20502;-78
2022/11/12 11:52:50;;;;;;;8.75;4.22;;;29.00;99.90;;;;;;5000903;28;20054;-79
2022/11/12 11:55:46;;;;;;;8.05;3.72;;;29.30;99.90;;;;;;4989366;28;20026;-79
2022/11/12 11:58:50;;;;;;;9.05;3.55;;;29.60;99.30;;;;;;4989106;28;20486;-78
2022/11/12 12:01:29;;;;;;;7.43;3.75;;;30.00;98.90;;;;;;4985665;28;20463;-78
2022/11/12 12:04:05;;;;;;;7.65;4.18;;;30.10;98.70;;;;;;5005173;28;20072;-79
2022/11/12 12:06:42;;;;;;;9.27;3.55;;;30.40;98.20;;;;;;5000700;28;20039;-78
2022/11/12 12:09:29;;;;;;;8.10;3.63;;;30.40;98.10;;;;;;4987422;28;20046;-79
2022/11/12 12:12:05;;;;;;;7.03;4.80;;;30.20;98.20;;;;;;5001557;28;20672;-79
2022/11/12 12:14:49;;;;;;;10.57;4.18;;;29.90;98.30;;;;;;4976242;28;20046;-79
2022/11/12 12:17:17;;;;;;;;;;;30.00;98.40;;;;;;5003608;28;20928;-78
2022/11/12 12:20:06;;;;;;;9.45;3.85;;;30.30;98.40;;;;;;5005043;28;19924;-79
2022/11/12 12:23:01;;;;;;;9.07;3.42;;;30.60;98.20;;;;;;5005626;28;20101;-79
2022/11/12 12:25:40;;;;;;;8.90;3.70;;;30.60;98.30;;;;;;4989353;28;20049;-78
2022/11/12 12:28:15;;;;;;;10.50;3.85;;;30.90;97.80;;;;;;5008257;28;20114;-79
2022/11/12 12:30:50;;;;;;;9.23;4.25;;;30.40;97.90;;;;;;4993822;28;20066;-79
2022/11/12 12:33:29;;;;;;;9.98;3.60;;;30.60;97.80;;;;;;4990621;28;20034;-78
2022/11/12 12:36:01;;;;;;;9.45;4.40;;;30.50;97.70;;;;;;4992178;28;20038;-79
2022/11/12 12:39:13;;;;;;;8.68;3.40;;;30.50;97.50;;;;;;5001743;28;20046;-79
2022/11/12 12:41:57;;;;;;;6.20;3.63;;;29.60;98.00;;;;;;4984900;28;20126;-76
2022/11/12 12:44:58;;;;;;;10.13;3.45;;;29.60;98.00;;;;;;4976798;28;20035;-76
2022/11/12 12:47:13;;;;;;;5.90;3.05;;;30.00;98.20;;;;;;4977557;28;20031;-76
2022/11/12 12:49:40;;;;;;;8.23;3.08;;;30.10;97.60;;;;;;4984330;28;20050;-76
2022/11/12 12:52:10;;;;;;;9.57;3.58;;;30.60;97.30;;;;;;4982500;28;20030;-75
2022/11/12 12:54:44;;;;;;;7.70;3.40;;;31.00;96.90;;;;;;4983277;28;20123;-75
2022/11/12 12:57:38;;;;;;;8.45;3.58;;;30.80;96.60;;;;;;4986013;28;20429;-75
2022/11/12 13:00:39;;;;;;;7.63;3.63;;;31.10;96.50;;;;;;4971810;28;20043;-76
2022/11/12 13:03:05;;;;;;;7.90;3.92;;;31.20;96.40;;;;;;4979772;28;20093;-74
2022/11/12 13:05:36;;;;;;;7.57;3.28;;;31.70;96.00;;;;;;4964763;28;20490;-75
2022/11/12 13:08:09;;;;;;;8.80;3.35;;;32.10;95.50;;;;;;4977897;28;20049;-75
2022/11/12 13:10:42;;;;;;;7.90;2.65;;;31.80;95.40;;;;;;4983851;28;20125;-76
2022/11/12 13:13:28;;;;;;;7.35;2.78;;;32.00;95.10;;;;;;4997183;28;20031;-75
2022/11/12 13:15:55;;;;;;;9.05;4.55;;;32.20;94.70;;;;;;4981283;28;20066;-75
2022/11/12 13:18:39;;;;;;;7.25;2.80;;;32.20;94.40;;;;;;4980135;28;20030;-75
2022/11/12 13:21:15;;;;;;;;;;;32.70;94.10;;;;;;4981189;28;20041;-74
2022/11/12 13:26:56;;;;;;;7.30;2.47;;;29.90;95.50;;;;;;4979185;28;20511;-75
2022/11/12 13:29:28;;;;;;;6.38;2.97;;;29.90;95.80;;;;;;4977649;28;20062;-75
2022/11/12 13:32:47;;;;;;;8.02;3.50;;;28.80;96.70;;;;;;4983816;28;20391;-75